CheckWX is a tool to help pilots better visualize weather data.  It is not intended as a substitute for an official pre-flight weather briefing.

11:30:09 UTC

GMME METAR
Rabat-Salé Airport
Rabat, Morocco
Current

30 mins ago

GMME 141100Z 22010KT 190V250 6000 SCT007 SCT011 BKN016 22/16 Q1020 NOSIG
Observed
Oct-14 @ 11:00 UTC
Wind
  • 220° at 10 KTS
Visibility
6,000 meters
Flight Rules
MVFR
Cloud Levels
  • Scattered at 700' AGL
  • Scattered at 1,100' AGL
  • Broken at 1,600' AGL
Temperature
22°C / 72°F
Dewpoint
16°C / 61°F
Humidity
69%
Altimeter
30.12" Hg
Pressure
1019.92 hPa
Previous

60 mins ago

GMME 141030Z 22014KT 6000 SCT007 SCT011 BKN016 20/16 Q1020 NOSIG
Observed
Oct-14 @ 10:30 UTC
Wind
  • 220° at 14 KTS
Visibility
6,000 meters
Flight Rules
MVFR
Cloud Levels
  • Scattered at 700' AGL
  • Scattered at 1,100' AGL
  • Broken at 1,600' AGL
Temperature
20°C / 68°F
Dewpoint
16°C / 61°F
Humidity
78%
Altimeter
30.12" Hg
Pressure
1019.92 hPa
Previous

2 hours ago

GMME 141000Z 23012KT 5000 SCT007 SCT011 BKN016 19/17 Q1020 NOSIG
Observed
Oct-14 @ 10:00 UTC
Wind
  • 230° at 12 KTS
Visibility
5,000 meters
Flight Rules
MVFR
Cloud Levels
  • Scattered at 700' AGL
  • Scattered at 1,100' AGL
  • Broken at 1,600' AGL
Temperature
19°C / 66°F
Dewpoint
17°C / 63°F
Humidity
88%
Altimeter
30.12" Hg
Pressure
1019.92 hPa